createdAt,value
2022-08-08T00:00:52.540Z,4.67
2022-08-08T00:03:19.993Z,4.50
2022-08-08T00:06:34.917Z,4.43
2022-08-08T00:09:08.685Z,4.37
2022-08-08T00:12:07.170Z,4.60
2022-08-08T00:15:08.859Z,4.00
2022-08-08T00:18:03.947Z,4.20
2022-08-08T00:20:53.128Z,3.67
2022-08-08T00:23:42.302Z,4.10
2022-08-08T00:26:26.085Z,4.60
2022-08-08T00:29:44.210Z,4.20
2022-08-08T00:32:37.675Z,3.73
2022-08-08T00:36:01.899Z,4.40
2022-08-08T00:39:36.049Z,4.00
2022-08-08T00:42:52.674Z,3.70
2022-08-08T00:45:53.368Z,3.70
2022-08-08T00:49:22.558Z,3.70
2022-08-08T00:52:22.612Z,3.87
2022-08-08T00:55:36.001Z,4.20
2022-08-08T00:58:43.647Z,4.93
2022-08-08T01:01:37.967Z,4.97
2022-08-08T01:04:55.476Z,5.60
2022-08-08T01:07:57.088Z,5.17
2022-08-08T01:11:08.908Z,5.30
2022-08-08T01:14:16.494Z,5.40
2022-08-08T01:17:35.034Z,4.90
2022-08-08T01:20:39.127Z,4.73
2022-08-08T01:24:13.700Z,4.70
2022-08-08T01:27:16.259Z,4.57
2022-08-08T01:30:03.493Z,4.43
2022-08-08T01:33:33.896Z,4.63
2022-08-08T01:37:21.843Z,4.30
2022-08-08T01:40:31.800Z,4.10
2022-08-08T01:43:24.417Z,3.90
2022-08-08T01:46:30.344Z,4.03
2022-08-08T01:49:14.281Z,4.23
2022-08-08T01:54:06.904Z,4.20
2022-08-08T01:56:29.674Z,4.13
2022-08-08T01:59:11.825Z,3.67
2022-08-08T02:02:05.042Z,4.17
2022-08-08T02:05:23.282Z,4.63
2022-08-08T02:08:18.260Z,3.97
2022-08-08T02:11:23.648Z,3.63
2022-08-08T02:14:05.388Z,3.60
2022-08-08T02:17:20.182Z,3.53
2022-08-08T02:20:09.183Z,3.33
2022-08-08T02:22:57.293Z,3.40
2022-08-08T02:25:48.339Z,3.33
2022-08-08T02:28:35.345Z,3.37
2022-08-08T02:31:58.648Z,3.33
2022-08-08T02:35:08.450Z,3.40
2022-08-08T02:38:25.655Z,3.10
2022-08-08T02:42:03.524Z,3.50
2022-08-08T02:45:18.142Z,3.27
2022-08-08T02:48:25.835Z,3.23
2022-08-08T02:51:47.627Z,3.00
2022-08-08T02:54:45.118Z,3.10
2022-08-08T02:58:08.557Z,3.00
2022-08-08T03:01:08.651Z,3.00
2022-08-08T03:05:02.420Z,3.07
2022-08-08T03:07:58.109Z,3.07
2022-08-08T03:11:59.819Z,3.07
2022-08-08T03:15:59.072Z,3.10
2022-08-08T03:18:13.885Z,3.30
2022-08-08T03:20:51.428Z,3.17
2022-08-08T03:23:39.577Z,3.17
2022-08-08T03:26:30.770Z,3.30
2022-08-08T03:29:16.927Z,3.10
2022-08-08T03:32:08.864Z,3.33
2022-08-08T03:34:40.399Z,3.40
2022-08-08T03:37:59.114Z,3.30
2022-08-08T03:40:07.105Z,3.33
2022-08-08T03:42:49.041Z,3.30
2022-08-08T03:46:05.746Z,3.33
2022-08-08T03:48:21.396Z,3.20
2022-08-08T03:51:07.280Z,3.27
2022-08-08T03:53:42.511Z,3.27
2022-08-08T03:56:31.215Z,3.40
2022-08-08T03:59:00.900Z,3.23
2022-08-08T04:02:32.829Z,3.27
2022-08-08T04:04:30.930Z,3.40
2022-08-08T04:07:01.416Z,3.30
2022-08-08T04:09:59.039Z,3.50
2022-08-08T04:12:22.920Z,3.50
2022-08-08T04:14:51.446Z,3.43
2022-08-08T04:17:46.726Z,3.27
2022-08-08T04:20:08.543Z,3.47
2022-08-08T04:22:37.422Z,3.60
2022-08-08T04:25:08.831Z,3.70
2022-08-08T04:28:03.054Z,3.70
2022-08-08T04:30:30.345Z,3.50
2022-08-08T04:33:07.823Z,3.80
2022-08-08T04:35:39.821Z,3.67
2022-08-08T04:38:09.829Z,3.60
2022-08-08T04:40:51.716Z,3.70
2022-08-08T04:43:32.360Z,3.43
2022-08-08T04:46:14.744Z,3.60
2022-08-08T04:48:43.605Z,3.60
2022-08-08T04:51:11.962Z,3.50
2022-08-08T04:54:27.544Z,3.63
2022-08-08T04:56:32.999Z,3.70
2022-08-08T04:59:01.641Z,3.43
2022-08-08T05:01:35.596Z,3.47
2022-08-08T05:04:16.400Z,3.20
2022-08-08T05:06:48.077Z,3.20
2022-08-08T05:09:21.944Z,3.20
2022-08-08T05:11:56.697Z,2.87
2022-08-08T05:14:26.561Z,3.17
2022-08-08T05:17:00.924Z,2.97
2022-08-08T05:20:12.536Z,3.07
2022-08-08T05:22:27.544Z,2.97
2022-08-08T05:24:55.823Z,3.03
2022-08-08T05:27:24.421Z,3.10
2022-08-08T05:29:53.039Z,3.10
2022-08-08T05:32:27.348Z,2.80
2022-08-08T05:35:04.463Z,2.90
2022-08-08T05:37:51.710Z,3.30
2022-08-08T05:40:28.442Z,3.03
2022-08-08T05:43:38.701Z,3.27
2022-08-08T05:46:07.635Z,3.50
2022-08-08T05:48:38.937Z,3.70
2022-08-08T05:51:14.445Z,3.63
2022-08-08T05:53:56.228Z,3.80
2022-08-08T05:56:47.131Z,3.57
2022-08-08T05:59:57.715Z,4.00
2022-08-08T06:02:44.122Z,4.13
2022-08-08T06:05:33.662Z,4.60
2022-08-08T06:08:09.746Z,4.40
2022-08-08T06:10:50.142Z,4.57
2022-08-08T06:13:22.611Z,4.50
2022-08-08T06:15:56.488Z,4.50
2022-08-08T06:18:47.833Z,4.53
2022-08-08T06:21:33.031Z,4.53
2022-08-08T06:24:13.848Z,4.97
2022-08-08T06:27:04.837Z,5.00
2022-08-08T06:29:59.451Z,5.20
2022-08-08T06:32:33.879Z,4.37
2022-08-08T06:36:04.398Z,4.13
2022-08-08T06:38:09.261Z,3.80
2022-08-08T06:40:48.621Z,3.40
2022-08-08T06:43:30.529Z,3.50
2022-08-08T06:46:09.212Z,3.57
2022-08-08T06:48:43.279Z,3.30
2022-08-08T06:51:15.880Z,3.70
2022-08-08T06:53:50.544Z,3.60
2022-08-08T06:56:26.374Z,3.60
2022-08-08T06:58:54.763Z,3.57
2022-08-08T07:02:17.518Z,3.47
2022-08-08T07:04:41.470Z,4.10
2022-08-08T07:07:20.039Z,3.73
2022-08-08T07:10:03.201Z,5.00
2022-08-08T07:12:48.043Z,4.40
2022-08-08T07:16:04.863Z,4.30
2022-08-08T07:19:15.839Z,3.80
2022-08-08T07:22:04.901Z,3.70
2022-08-08T07:24:59.473Z,3.33
2022-08-08T07:28:00.493Z,4.30
2022-08-08T07:30:29.138Z,6.50
2022-08-08T07:33:01.143Z,5.50
2022-08-08T07:35:31.961Z,4.03
2022-08-08T07:38:18.261Z,3.07
2022-08-08T07:41:04.178Z,3.23
2022-08-08T07:43:36.858Z,3.73
2022-08-08T07:46:23.280Z,5.00
2022-08-08T07:48:52.489Z,4.70
2022-08-08T07:51:23.200Z,2.97
2022-08-08T07:54:32.157Z,3.03
2022-08-08T07:57:48.493Z,3.50
2022-08-08T08:03:58.600Z,2.00
2022-08-08T08:06:30.119Z,1.80
2022-08-08T08:09:28.981Z,2.00
2022-08-08T08:12:04.665Z,2.87
2022-08-08T08:14:59.105Z,2.80
2022-08-08T08:17:36.419Z,2.10
2022-08-08T08:20:21.347Z,4.77
2022-08-08T08:22:57.578Z,5.40
2022-08-08T08:25:42.950Z,5.10
2022-08-08T08:28:17.014Z,4.13
2022-08-08T08:30:53.867Z,3.80
2022-08-08T08:33:24.620Z,3.73
2022-08-08T08:36:20.375Z,2.97
2022-08-08T08:38:49.531Z,3.90
2022-08-08T08:41:19.982Z,6.00
2022-08-08T08:43:51.989Z,9.67
2022-08-08T08:46:25.739Z,13.40
2022-08-08T08:48:55.902Z,8.60
2022-08-08T08:51:28.970Z,6.30
2022-08-08T08:54:02.910Z,7.30
2022-08-08T08:56:37.866Z,5.27
2022-08-08T08:59:15.296Z,6.53
2022-08-08T09:01:55.300Z,3.73
2022-08-08T09:04:39.613Z,2.87
2022-08-08T09:07:23.752Z,2.00
2022-08-08T09:10:13.791Z,1.67
2022-08-08T09:12:47.488Z,1.70
2022-08-08T09:15:18.609Z,2.20
2022-08-08T09:18:06.697Z,2.33
2022-08-08T09:21:59.247Z,2.30
2022-08-08T09:23:26.205Z,2.57
2022-08-08T09:26:16.030Z,2.23
2022-08-08T09:28:45.049Z,2.37
2022-08-08T09:31:56.408Z,2.00
2022-08-08T09:34:35.104Z,1.50
2022-08-08T09:37:57.138Z,1.40
2022-08-08T09:40:10.714Z,1.37
2022-08-08T09:42:51.439Z,1.20
2022-08-08T09:45:54.987Z,1.30
2022-08-08T09:48:26.141Z,1.40
2022-08-08T09:50:58.855Z,1.53
2022-08-08T09:53:59.166Z,2.30
2022-08-08T09:56:40.963Z,3.20
2022-08-08T09:59:50.196Z,3.63
2022-08-08T10:02:12.673Z,4.00
2022-08-08T10:04:47.475Z,2.90
2022-08-08T10:07:17.336Z,3.13
2022-08-08T10:10:00.300Z,3.30
2022-08-08T10:12:53.882Z,2.63
2022-08-08T10:15:28.460Z,3.10
2022-08-08T10:18:06.106Z,3.70
2022-08-08T10:21:25.106Z,4.30
2022-08-08T10:23:59.808Z,3.70
2022-08-08T10:26:52.447Z,2.43
2022-08-08T10:29:43.788Z,1.83
2022-08-08T10:32:34.340Z,2.17
2022-08-08T10:35:20.545Z,2.30
2022-08-08T10:38:05.859Z,2.13
2022-08-08T10:40:39.432Z,2.70
2022-08-08T10:43:09.752Z,1.90
2022-08-08T10:45:56.436Z,2.20
2022-08-08T10:48:58.919Z,1.90
2022-08-08T10:51:31.133Z,1.80
2022-08-08T10:54:08.309Z,1.80
2022-08-08T10:56:42.904Z,1.73
2022-08-08T10:59:14.196Z,2.73
2022-08-08T11:01:54.381Z,3.67
2022-08-08T11:04:29.451Z,4.10
2022-08-08T11:07:01.404Z,2.90
2022-08-08T11:09:32.313Z,3.23
2022-08-08T11:12:12.742Z,3.20
2022-08-08T11:14:57.367Z,2.10
2022-08-08T11:18:00.336Z,2.10
2022-08-08T11:20:29.429Z,3.23
2022-08-08T11:23:05.383Z,2.10
2022-08-08T11:25:53.359Z,2.20
2022-08-08T11:28:30.592Z,3.20
2022-08-08T11:31:04.620Z,2.80
2022-08-08T11:34:01.620Z,3.97
2022-08-08T11:36:29.154Z,4.40
2022-08-08T11:38:57.535Z,4.23
2022-08-08T11:41:32.249Z,3.37
2022-08-08T11:44:02.948Z,4.33
2022-08-08T11:46:34.441Z,2.97
2022-08-08T11:49:14.060Z,3.97
2022-08-08T11:51:50.443Z,3.20
2022-08-08T11:54:44.988Z,3.40
2022-08-08T11:57:28.021Z,2.77
2022-08-08T12:00:10.462Z,2.37
2022-08-08T12:03:00.141Z,2.23
2022-08-08T12:05:36.956Z,4.03
2022-08-08T12:08:05.015Z,4.23
2022-08-08T12:10:32.512Z,4.37
2022-08-08T12:13:10.536Z,4.97
2022-08-08T12:15:42.499Z,4.70
2022-08-08T12:18:21.033Z,4.50
2022-08-08T12:20:53.292Z,3.97
2022-08-08T12:23:43.266Z,3.87
2022-08-08T12:26:45.397Z,2.20
2022-08-08T12:29:44.947Z,2.10
2022-08-08T12:32:31.159Z,3.30
2022-08-08T12:35:04.175Z,2.93
2022-08-08T12:37:41.444Z,3.40
2022-08-08T12:40:54.344Z,3.27
2022-08-08T12:43:46.251Z,2.67
2022-08-08T12:46:26.568Z,2.40
2022-08-08T12:51:59.347Z,1.73
2022-08-08T12:54:36.055Z,2.27
2022-08-08T12:57:23.478Z,2.27
2022-08-08T13:00:04.808Z,2.13
2022-08-08T13:02:51.084Z,1.87
2022-08-08T13:05:26.299Z,1.83
2022-08-08T13:08:18.700Z,2.10
2022-08-08T13:10:56.653Z,2.30
2022-08-08T13:13:35.522Z,2.80
2022-08-08T13:16:25.715Z,3.40
2022-08-08T13:19:00.703Z,3.37
2022-08-08T13:21:53.197Z,3.27
2022-08-08T13:24:40.568Z,3.57
2022-08-08T13:27:35.422Z,4.00
2022-08-08T13:30:06.546Z,4.60
2022-08-08T13:32:39.506Z,4.50
2022-08-08T13:35:24.892Z,4.17
2022-08-08T13:38:07.355Z,3.70
2022-08-08T13:40:45.067Z,2.80
2022-08-08T13:43:16.922Z,3.87
2022-08-08T13:45:47.535Z,3.77
2022-08-08T13:48:19.732Z,2.73
2022-08-08T13:50:57.678Z,2.60
2022-08-08T13:53:53.382Z,2.70
2022-08-08T13:56:44.786Z,2.50
2022-08-08T13:59:39.299Z,2.47
2022-08-08T14:02:21.234Z,3.20
2022-08-08T14:05:09.103Z,3.17
2022-08-08T14:07:52.990Z,3.40
2022-08-08T14:10:33.263Z,2.83
2022-08-08T14:13:30.849Z,2.20
2022-08-08T14:16:16.135Z,1.97
2022-08-08T14:18:55.109Z,2.20
2022-08-08T14:21:52.179Z,2.00
2022-08-08T14:24:34.371Z,2.10
2022-08-08T14:27:07.854Z,2.40
2022-08-08T14:29:39.601Z,2.27
2022-08-08T14:32:11.848Z,2.30
2022-08-08T14:34:42.117Z,2.20
2022-08-08T14:37:12.969Z,2.20
2022-08-08T14:40:06.021Z,2.17
2022-08-08T14:42:54.589Z,2.07
2022-08-08T14:46:01.181Z,1.90
2022-08-08T14:48:17.880Z,2.20
2022-08-08T14:51:06.770Z,2.97
2022-08-08T14:53:54.569Z,3.13
2022-08-08T14:56:25.264Z,3.53
2022-08-08T14:58:54.712Z,3.70
2022-08-08T15:01:37.524Z,3.50
2022-08-08T15:04:11.109Z,3.60
2022-08-08T15:06:39.050Z,3.57
2022-08-08T15:09:09.845Z,3.30
2022-08-08T15:11:46.649Z,3.30
2022-08-08T15:14:25.149Z,2.77
2022-08-08T15:16:55.319Z,2.17
2022-08-08T15:19:27.803Z,2.73
2022-08-08T15:21:55.940Z,2.27
2022-08-08T15:24:31.439Z,2.47
2022-08-08T15:27:11.973Z,3.00
2022-08-08T15:29:48.012Z,3.70
2022-08-08T15:32:20.608Z,4.10
2022-08-08T15:34:51.061Z,4.10
2022-08-08T15:37:19.048Z,3.90
2022-08-08T15:39:47.957Z,3.47
2022-08-08T15:42:31.789Z,2.83
2022-08-08T15:45:01.511Z,2.20
2022-08-08T15:47:31.956Z,2.10
2022-08-08T15:49:59.577Z,2.17
2022-08-08T15:52:27.070Z,2.00
2022-08-08T15:54:54.246Z,1.90
2022-08-08T15:57:23.170Z,1.80
2022-08-08T16:00:06.076Z,1.83
2022-08-08T16:02:50.389Z,2.10
2022-08-08T16:05:21.094Z,2.30
2022-08-08T16:07:53.163Z,2.60
2022-08-08T16:13:09.109Z,3.33
2022-08-08T16:13:34.371Z,3.50
2022-08-08T16:16:16.594Z,2.90
2022-08-08T16:18:56.958Z,2.47
2022-08-08T16:21:29.407Z,2.30
2022-08-08T16:24:01.065Z,2.10
2022-08-08T16:26:33.924Z,2.23
2022-08-08T16:29:07.697Z,4.33
2022-08-08T16:31:40.174Z,3.60
2022-08-08T16:34:10.233Z,6.00
2022-08-08T16:36:40.631Z,7.40
2022-08-08T16:39:28.113Z,6.87
2022-08-08T16:42:00.839Z,4.83
2022-08-08T16:44:34.050Z,3.87
2022-08-08T16:47:40.039Z,2.93
2022-08-08T16:50:15.817Z,2.90
2022-08-08T16:55:02.363Z,2.93
2022-08-08T16:55:54.233Z,2.60
2022-08-08T16:58:25.809Z,2.70
2022-08-08T17:00:55.473Z,2.67
2022-08-08T17:04:00.909Z,2.40
2022-08-08T17:06:37.742Z,2.30
2022-08-08T17:09:00.967Z,1.90
2022-08-08T17:11:39.229Z,2.30
2022-08-08T17:14:19.039Z,2.20
2022-08-08T17:16:57.193Z,2.83
2022-08-08T17:19:27.553Z,3.33
2022-08-08T17:22:01.216Z,3.60
2022-08-08T17:24:30.848Z,4.47
2022-08-08T17:27:01.841Z,4.00
2022-08-08T17:29:33.690Z,3.90
2022-08-08T17:32:04.158Z,3.53
2022-08-08T17:34:49.030Z,3.80
2022-08-08T17:37:19.910Z,3.80
2022-08-08T17:40:11.052Z,3.53
2022-08-08T17:42:35.452Z,3.40
2022-08-08T17:45:03.884Z,3.80
2022-08-08T17:47:40.358Z,4.20
2022-08-08T17:50:09.857Z,4.70
2022-08-08T17:52:38.057Z,4.73
2022-08-08T17:56:03.869Z,5.37
2022-08-08T17:57:54.509Z,4.93
2022-08-08T18:00:30.885Z,5.27
2022-08-08T18:03:07.595Z,5.50
2022-08-08T18:05:44.016Z,5.47
2022-08-08T18:08:24.506Z,5.47
2022-08-08T18:11:16.155Z,5.57
2022-08-08T18:13:47.930Z,5.40
2022-08-08T18:16:20.227Z,6.20
2022-08-08T18:18:56.678Z,4.90
2022-08-08T18:21:58.876Z,5.17
2022-08-08T18:24:22.035Z,3.83
2022-08-08T18:26:56.627Z,3.60
2022-08-08T18:29:35.207Z,2.90
2022-08-08T18:32:08.243Z,2.50
2022-08-08T18:34:39.519Z,2.60
2022-08-08T18:37:08.340Z,2.40
2022-08-08T18:39:41.405Z,2.70
2022-08-08T18:42:15.897Z,2.33
2022-08-08T18:44:55.256Z,2.80
2022-08-08T18:47:26.055Z,2.70
2022-08-08T18:49:58.838Z,2.70
2022-08-08T18:52:36.847Z,2.90
2022-08-08T18:55:10.271Z,2.60
2022-08-08T18:57:45.205Z,2.37
2022-08-08T19:00:20.124Z,2.60
2022-08-08T19:02:57.956Z,3.00
2022-08-08T19:05:45.035Z,3.13
2022-08-08T19:08:25.339Z,3.50
2022-08-08T19:11:01.454Z,3.73
2022-08-08T19:13:52.773Z,4.67
2022-08-08T19:16:23.452Z,4.77
2022-08-08T19:19:00.222Z,5.60
2022-08-08T19:21:33.239Z,6.43
2022-08-08T19:24:05.417Z,6.30
2022-08-08T19:26:37.787Z,5.83
2022-08-08T19:29:06.670Z,4.97
2022-08-08T19:31:35.493Z,5.97
2022-08-08T19:34:30.432Z,6.53
2022-08-08T19:36:58.620Z,5.43
2022-08-08T19:39:30.918Z,5.67
2022-08-08T19:42:04.877Z,4.27
2022-08-08T19:44:34.780Z,5.00
2022-08-08T19:47:12.352Z,4.93
2022-08-08T19:49:43.317Z,5.47
2022-08-08T19:52:17.819Z,5.20
2022-08-08T19:55:09.268Z,4.53
2022-08-08T19:57:40.967Z,4.50
2022-08-08T20:00:28.956Z,5.20
2022-08-08T20:03:01.876Z,4.73
2022-08-08T20:06:13.928Z,4.67
2022-08-08T20:08:32.170Z,4.33
2022-08-08T20:11:01.077Z,4.73
2022-08-08T20:14:12.187Z,4.30
2022-08-08T20:16:18.302Z,5.03
2022-08-08T20:18:53.059Z,4.60
2022-08-08T20:21:25.581Z,4.40
2022-08-08T20:24:00.781Z,4.47
2022-08-08T20:26:30.007Z,4.30
2022-08-08T20:28:59.731Z,4.30
2022-08-08T20:31:47.360Z,4.27
2022-08-08T20:34:28.765Z,4.10
2022-08-08T20:37:00.761Z,3.70
2022-08-08T20:39:39.769Z,4.37
2022-08-08T20:42:28.597Z,4.07
2022-08-08T20:44:58.471Z,4.23
2022-08-08T20:47:26.238Z,4.17
2022-08-08T20:49:57.495Z,3.67
2022-08-08T20:52:29.055Z,3.87
2022-08-08T20:54:57.573Z,4.07
2022-08-08T20:57:28.953Z,3.73
2022-08-08T20:59:57.776Z,4.13
2022-08-08T21:02:27.627Z,3.77
2022-08-08T21:05:00.955Z,3.77
2022-08-08T21:07:46.971Z,3.77
2022-08-08T21:10:21.054Z,4.03
2022-08-08T21:12:52.881Z,3.70
2022-08-08T21:16:04.679Z,3.80
2022-08-08T21:18:11.851Z,3.90
2022-08-08T21:20:41.966Z,3.87
2022-08-08T21:23:13.116Z,4.10
2022-08-08T21:25:48.800Z,4.10
2022-08-08T21:28:19.512Z,3.97
2022-08-08T21:31:21.877Z,4.20
2022-08-08T21:33:52.744Z,4.00
2022-08-08T21:36:29.147Z,4.00
2022-08-08T21:38:57.691Z,4.10
2022-08-08T21:41:38.594Z,4.17
2022-08-08T21:44:14.101Z,3.83
2022-08-08T21:48:05.670Z,3.90
2022-08-08T21:49:30.511Z,3.60
2022-08-08T21:54:32.113Z,3.40
2022-08-08T21:54:53.372Z,3.43
2022-08-08T21:57:43.095Z,3.30
2022-08-08T22:00:25.841Z,3.40
2022-08-08T22:02:53.837Z,3.40
2022-08-08T22:05:22.888Z,3.43
2022-08-08T22:07:50.538Z,3.57
2022-08-08T22:10:32.781Z,3.37
2022-08-08T22:13:16.909Z,3.20
2022-08-08T22:15:58.646Z,3.27
2022-08-08T22:18:34.125Z,3.40
2022-08-08T22:21:13.850Z,3.23
2022-08-08T22:23:51.180Z,3.33
2022-08-08T22:26:29.728Z,3.47
2022-08-08T22:29:15.112Z,3.50
2022-08-08T22:32:01.815Z,3.30
2022-08-08T22:34:32.645Z,3.37
2022-08-08T22:37:00.710Z,3.20
2022-08-08T22:39:45.791Z,3.30
2022-08-08T22:42:27.199Z,3.10
2022-08-08T22:44:58.859Z,3.30
2022-08-08T22:47:38.031Z,3.50
2022-08-08T22:50:09.943Z,3.23
2022-08-08T22:54:15.716Z,3.23
2022-08-08T22:55:58.220Z,3.10
2022-08-08T22:58:32.677Z,2.90
2022-08-08T23:01:16.789Z,2.87
2022-08-08T23:03:53.468Z,2.90
2022-08-08T23:06:23.215Z,3.00
2022-08-08T23:08:55.612Z,2.83
2022-08-08T23:11:30.766Z,3.00
2022-08-08T23:14:12.954Z,2.90
2022-08-08T23:16:43.714Z,3.10
2022-08-08T23:19:12.369Z,3.40
2022-08-08T23:21:43.013Z,3.13
2022-08-08T23:24:22.338Z,3.23
2022-08-08T23:26:53.003Z,3.07
2022-08-08T23:29:25.523Z,3.00
2022-08-08T23:31:54.091Z,3.07
2022-08-08T23:34:22.310Z,3.10
2022-08-08T23:36:58.008Z,3.00
2022-08-08T23:39:32.364Z,3.13
2022-08-08T23:42:09.842Z,2.80
2022-08-08T23:44:38.559Z,3.20
2022-08-08T23:49:08.769Z,3.30
2022-08-08T23:50:02.908Z,3.30
2022-08-08T23:52:34.039Z,3.13
2022-08-08T23:55:14.734Z,3.30
2022-08-08T23:57:52.339Z,3.53
